createdAt,value
2018-11-06T00:01:59.304Z,32.33
2018-11-06T00:04:33.212Z,29.83
2018-11-06T00:07:01.855Z,30.27
2018-11-06T00:09:30.430Z,37.10
2018-11-06T00:11:59.004Z,33.27
2018-11-06T00:14:27.559Z,31.17
2018-11-06T00:16:56.165Z,30.70
2018-11-06T00:19:24.725Z,34.13
2018-11-06T00:21:53.391Z,33.07
2018-11-06T00:24:22.797Z,30.17
2018-11-06T00:26:51.401Z,28.53
2018-11-06T00:29:19.956Z,28.60
2018-11-06T00:31:48.723Z,28.13
2018-11-06T00:34:17.353Z,29.73
2018-11-06T00:36:45.946Z,28.87
2018-11-06T00:39:14.511Z,30.90
2018-11-06T00:41:43.108Z,28.50
2018-11-06T00:44:11.682Z,31.90
2018-11-06T00:46:40.307Z,30.47
2018-11-06T00:49:08.871Z,28.60
2018-11-06T00:51:37.503Z,31.03
2018-11-06T00:54:06.959Z,28.37
2018-11-06T00:56:35.626Z,28.00
2018-11-06T00:59:04.316Z,28.30
2018-11-06T01:01:32.947Z,28.57
2018-11-06T01:04:07.410Z,28.47
2018-11-06T01:06:36.367Z,28.53
2018-11-06T01:09:06.363Z,29.60
2018-11-06T01:11:35.018Z,36.27
2018-11-06T01:14:03.617Z,30.93
2018-11-06T01:16:32.191Z,28.30
2018-11-06T01:19:00.740Z,30.27
2018-11-06T01:21:29.356Z,30.23
2018-11-06T01:23:57.937Z,28.30
2018-11-06T01:26:26.596Z,26.00
2018-11-06T01:28:55.402Z,28.13
2018-11-06T01:31:23.999Z,27.57
2018-11-06T01:33:52.597Z,27.00
2018-11-06T01:36:21.203Z,26.17
2018-11-06T01:38:49.812Z,24.83
2018-11-06T01:41:18.530Z,23.93
2018-11-06T01:43:47.091Z,26.50
2018-11-06T01:46:15.776Z,24.23
2018-11-06T01:48:44.346Z,23.13
2018-11-06T01:51:12.965Z,23.90
2018-11-06T01:53:41.541Z,22.03
2018-11-06T01:56:10.864Z,24.97
2018-11-06T01:58:39.461Z,25.57
2018-11-06T02:01:08.071Z,24.03
2018-11-06T02:03:36.691Z,23.63
2018-11-06T02:06:05.997Z,23.80
2018-11-06T02:08:34.843Z,23.67
2018-11-06T02:11:03.916Z,21.50
2018-11-06T02:13:32.478Z,21.03
2018-11-06T02:16:01.092Z,23.03
2018-11-06T02:18:29.702Z,26.00
2018-11-06T02:20:58.274Z,22.07
2018-11-06T02:23:26.911Z,21.83
2018-11-06T02:25:55.617Z,21.03
2018-11-06T02:28:24.335Z,20.77
2018-11-06T02:30:52.982Z,20.53
2018-11-06T02:33:21.639Z,20.20
2018-11-06T02:35:50.276Z,18.73
2018-11-06T02:38:18.892Z,19.03
2018-11-06T02:40:47.473Z,18.77
2018-11-06T02:43:16.185Z,19.03
2018-11-06T02:45:44.824Z,19.83
2018-11-06T02:48:13.540Z,19.97
2018-11-06T02:50:42.204Z,21.60
2018-11-06T02:53:10.808Z,20.30
2018-11-06T02:55:39.393Z,20.57
2018-11-06T02:58:08.018Z,19.70
2018-11-06T03:00:36.597Z,20.63
2018-11-06T03:03:05.600Z,18.57
2018-11-06T03:05:34.183Z,20.43
2018-11-06T03:08:02.849Z,19.77
2018-11-06T03:10:31.456Z,20.33
2018-11-06T03:13:00.014Z,19.53
2018-11-06T03:15:28.562Z,19.00
2018-11-06T03:17:57.117Z,19.37
2018-11-06T03:20:25.699Z,21.47
2018-11-06T03:22:54.259Z,20.63
2018-11-06T03:25:22.814Z,19.37
2018-11-06T03:27:51.433Z,19.90
2018-11-06T03:30:19.976Z,18.63
2018-11-06T03:32:48.528Z,18.27
2018-11-06T03:35:17.067Z,15.53
2018-11-06T03:37:45.628Z,16.67
2018-11-06T03:40:14.254Z,16.67
2018-11-06T03:42:43.483Z,16.67
2018-11-06T03:45:12.870Z,16.47
2018-11-06T03:47:41.415Z,15.80
2018-11-06T03:50:11.573Z,16.33
2018-11-06T03:52:40.168Z,16.50
2018-11-06T03:55:09.048Z,15.63
2018-11-06T03:57:37.662Z,16.03
2018-11-06T04:00:08.538Z,15.20
2018-11-06T04:02:37.108Z,17.23
2018-11-06T04:05:06.233Z,15.77
2018-11-06T04:07:34.870Z,16.47
2018-11-06T04:10:03.884Z,17.17
2018-11-06T04:12:32.465Z,16.90
2018-11-06T04:15:01.038Z,18.27
2018-11-06T04:17:29.606Z,17.50
2018-11-06T04:19:58.154Z,17.87
2018-11-06T04:22:26.693Z,16.23
2018-11-06T04:24:55.271Z,16.50
2018-11-06T04:27:23.831Z,17.37
2018-11-06T04:29:52.347Z,18.10
2018-11-06T04:32:20.879Z,18.23
2018-11-06T04:34:49.428Z,17.70
2018-11-06T04:37:17.957Z,17.83
2018-11-06T04:39:46.511Z,21.50
2018-11-06T04:42:15.049Z,18.27
2018-11-06T04:44:43.653Z,19.03
2018-11-06T04:47:12.203Z,21.37
2018-11-06T04:49:40.850Z,18.30
2018-11-06T04:52:09.363Z,17.97
2018-11-06T04:54:37.918Z,18.27
2018-11-06T04:57:06.482Z,18.33
2018-11-06T04:59:35.073Z,17.87
2018-11-06T05:02:03.710Z,19.43
2018-11-06T05:04:32.230Z,18.77
2018-11-06T05:07:00.897Z,18.57
2018-11-06T05:09:29.381Z,18.37
2018-11-06T05:11:58.000Z,18.73
2018-11-06T05:14:26.561Z,19.13
2018-11-06T05:16:55.110Z,18.73
2018-11-06T05:19:23.684Z,16.97
2018-11-06T05:21:52.210Z,16.17
2018-11-06T05:24:20.794Z,16.70
2018-11-06T05:26:49.331Z,16.70
2018-11-06T05:29:18.167Z,17.10
2018-11-06T05:31:46.734Z,16.37
2018-11-06T05:34:15.291Z,16.30
2018-11-06T05:36:43.902Z,16.60
2018-11-06T05:39:13.726Z,16.70
2018-11-06T05:41:42.247Z,18.03
2018-11-06T05:44:10.974Z,17.43
2018-11-06T05:46:39.503Z,17.23
2018-11-06T05:49:08.177Z,16.90
2018-11-06T05:51:36.733Z,17.17
2018-11-06T05:54:06.029Z,16.93
2018-11-06T05:56:34.601Z,16.50
2018-11-06T05:59:03.203Z,17.83
2018-11-06T06:01:31.786Z,18.10
2018-11-06T06:04:00.365Z,18.87
2018-11-06T06:06:29.313Z,18.07
2018-11-06T06:08:57.897Z,17.37
2018-11-06T06:11:26.818Z,18.80
2018-11-06T06:13:55.434Z,19.13
2018-11-06T06:16:24.038Z,19.20
2018-11-06T06:18:52.637Z,19.37
2018-11-06T06:21:21.230Z,17.87
2018-11-06T06:23:49.775Z,18.00
2018-11-06T06:26:18.408Z,18.60
2018-11-06T06:28:47.042Z,21.57
2018-11-06T06:31:15.640Z,20.47
2018-11-06T06:33:44.247Z,18.70
2018-11-06T06:36:12.872Z,19.20
2018-11-06T06:38:41.485Z,18.67
2018-11-06T06:41:10.096Z,17.73
2018-11-06T06:43:38.684Z,17.97
2018-11-06T06:46:07.360Z,17.63
2018-11-06T06:48:35.952Z,16.93
2018-11-06T06:51:05.290Z,19.13
2018-11-06T06:53:33.874Z,16.80
2018-11-06T06:56:02.497Z,17.80
2018-11-06T06:58:31.057Z,15.93
2018-11-06T07:00:59.692Z,16.17
2018-11-06T07:03:34.821Z,17.27
2018-11-06T07:06:03.421Z,15.80
2018-11-06T07:08:32.038Z,15.30
2018-11-06T07:11:00.609Z,15.73
2018-11-06T07:13:29.165Z,14.93
2018-11-06T07:15:57.776Z,19.20
2018-11-06T07:18:26.420Z,20.13
2018-11-06T07:20:55.005Z,18.13
2018-11-06T07:23:23.600Z,15.33
2018-11-06T07:25:52.146Z,15.97
2018-11-06T07:28:20.703Z,15.27
2018-11-06T07:30:49.305Z,16.20
2018-11-06T07:33:17.903Z,16.60
2018-11-06T07:35:46.712Z,13.47
2018-11-06T07:38:15.039Z,14.70
2018-11-06T07:40:43.979Z,14.63
2018-11-06T07:43:12.520Z,83.97
2018-11-06T07:45:41.069Z,13.30
2018-11-06T07:48:09.574Z,14.63
2018-11-06T07:50:39.909Z,13.80
2018-11-06T07:53:08.444Z,14.43
2018-11-06T07:55:37.042Z,13.77
2018-11-06T07:58:05.854Z,13.33
2018-11-06T08:00:34.442Z,22.40
2018-11-06T08:03:03.005Z,13.87
2018-11-06T08:05:31.592Z,15.53
2018-11-06T08:08:00.100Z,18.57
2018-11-06T08:10:29.484Z,13.83
2018-11-06T08:12:58.012Z,15.07
2018-11-06T08:15:26.588Z,16.00
2018-11-06T08:17:55.271Z,16.00
2018-11-06T08:20:23.895Z,16.83
2018-11-06T08:22:52.463Z,14.93
2018-11-06T08:25:21.027Z,16.10
2018-11-06T08:27:49.616Z,14.97
2018-11-06T08:30:18.193Z,14.00
2018-11-06T08:32:46.996Z,13.87
2018-11-06T08:35:17.092Z,14.47
2018-11-06T08:37:45.628Z,15.30
2018-11-06T08:40:15.418Z,16.10
2018-11-06T08:42:44.071Z,16.10
2018-11-06T08:45:13.857Z,16.07
2018-11-06T08:47:43.446Z,19.20
2018-11-06T08:50:13.385Z,19.67
2018-11-06T08:52:42.148Z,18.10
2018-11-06T08:55:12.131Z,17.30
2018-11-06T08:57:41.489Z,16.87
2018-11-06T09:00:13.229Z,16.40
2018-11-06T09:02:42.341Z,16.60
2018-11-06T09:05:12.422Z,15.90
2018-11-06T09:07:40.991Z,16.67
2018-11-06T09:10:11.001Z,15.50
2018-11-06T09:12:40.116Z,14.90
2018-11-06T09:15:10.430Z,14.87
2018-11-06T09:17:39.312Z,15.40
2018-11-06T09:20:09.016Z,15.33
2018-11-06T09:22:37.634Z,16.03
2018-11-06T09:25:07.513Z,16.30
2018-11-06T09:27:36.083Z,15.73
2018-11-06T09:30:05.153Z,16.67
2018-11-06T09:32:33.710Z,16.27
2018-11-06T09:35:02.284Z,16.70
2018-11-06T09:37:30.873Z,16.73
2018-11-06T09:39:59.435Z,16.63
2018-11-06T09:42:28.006Z,16.73
2018-11-06T09:44:56.596Z,16.53
2018-11-06T09:47:25.198Z,16.13
2018-11-06T09:49:53.737Z,17.47
2018-11-06T09:52:22.289Z,18.10
2018-11-06T09:54:51.458Z,42.70
2018-11-06T09:57:19.977Z,18.03
2018-11-06T09:59:48.528Z,16.30
2018-11-06T10:02:17.694Z,17.67
2018-11-06T10:04:46.218Z,16.10
2018-11-06T10:07:15.137Z,15.67
2018-11-06T10:09:43.316Z,15.43
2018-11-06T10:12:11.891Z,15.53
2018-11-06T10:14:40.680Z,15.83
2018-11-06T10:17:09.424Z,16.67
2018-11-06T10:19:38.116Z,16.67
2018-11-06T10:22:07.040Z,16.17
2018-11-06T10:24:35.840Z,17.13
2018-11-06T10:27:04.629Z,23.40
2018-11-06T10:29:33.183Z,22.80
2018-11-06T10:32:01.749Z,20.40
2018-11-06T10:34:30.568Z,19.13
2018-11-06T10:36:59.230Z,17.70
2018-11-06T10:39:28.139Z,21.00
2018-11-06T10:41:56.751Z,18.33
2018-11-06T10:44:25.848Z,17.23
2018-11-06T10:46:54.682Z,18.30
2018-11-06T10:49:23.232Z,17.43
2018-11-06T10:51:52.219Z,17.10
2018-11-06T10:54:20.830Z,18.23
2018-11-06T10:56:49.431Z,18.07
2018-11-06T10:59:17.998Z,19.30
2018-11-06T11:01:52.024Z,17.30
2018-11-06T11:04:22.789Z,17.87
2018-11-06T11:06:51.457Z,18.23
2018-11-06T11:09:21.140Z,18.80
2018-11-06T11:11:50.330Z,20.33
2018-11-06T11:14:18.879Z,19.67
2018-11-06T11:16:47.431Z,19.00
2018-11-06T11:19:15.975Z,18.87
2018-11-06T11:21:44.514Z,18.10
2018-11-06T11:24:13.202Z,19.03
2018-11-06T11:26:42.021Z,19.47
2018-11-06T11:29:10.587Z,19.23
2018-11-06T11:31:39.131Z,22.63
2018-11-06T11:34:07.736Z,19.33
2018-11-06T11:36:36.317Z,18.70
2018-11-06T11:39:06.975Z,19.00
2018-11-06T11:41:35.672Z,19.30
2018-11-06T11:44:05.169Z,21.30
2018-11-06T11:46:33.953Z,20.17
2018-11-06T11:49:02.601Z,19.07
2018-11-06T11:51:31.293Z,18.63
2018-11-06T11:54:00.271Z,23.67
2018-11-06T11:56:29.213Z,21.80
2018-11-06T11:58:57.871Z,19.87
2018-11-06T12:01:26.691Z,21.87
2018-11-06T12:03:55.280Z,20.23
2018-11-06T12:06:24.557Z,21.57
2018-11-06T12:08:53.184Z,22.03
2018-11-06T12:11:21.794Z,21.40
2018-11-06T12:13:50.428Z,22.23
2018-11-06T12:16:19.492Z,21.37
2018-11-06T12:18:48.019Z,22.37
2018-11-06T12:21:16.587Z,21.43
2018-11-06T12:23:45.188Z,22.97
2018-11-06T12:26:13.834Z,23.23
2018-11-06T12:28:42.399Z,23.27
2018-11-06T12:31:11.030Z,23.60
2018-11-06T12:33:39.620Z,22.17
2018-11-06T12:36:08.133Z,23.33
2018-11-06T12:38:36.902Z,23.50
2018-11-06T12:41:05.924Z,23.97
2018-11-06T12:43:34.516Z,23.73
2018-11-06T12:46:03.043Z,23.80
2018-11-06T12:48:31.638Z,25.83
2018-11-06T12:51:00.240Z,24.83
2018-11-06T12:53:28.790Z,23.60
2018-11-06T12:55:57.505Z,24.23
2018-11-06T12:58:26.239Z,26.30
2018-11-06T13:00:54.819Z,24.93
2018-11-06T13:03:23.366Z,25.57
2018-11-06T13:05:51.896Z,24.27
2018-11-06T13:08:20.651Z,23.97
2018-11-06T13:10:49.297Z,24.30
2018-11-06T13:13:17.978Z,25.23
2018-11-06T13:15:46.610Z,24.40
2018-11-06T13:18:15.285Z,23.53
2018-11-06T13:20:44.044Z,25.73
2018-11-06T13:23:12.741Z,27.67
2018-11-06T13:25:41.388Z,27.33
2018-11-06T13:28:09.849Z,26.83
2018-11-06T13:30:38.390Z,29.60
2018-11-06T13:33:07.001Z,25.80
2018-11-06T13:35:35.524Z,33.17
2018-11-06T13:38:04.086Z,22.53
2018-11-06T13:40:32.683Z,23.20
2018-11-06T13:43:01.306Z,22.23
2018-11-06T13:45:30.090Z,31.57
2018-11-06T13:47:58.593Z,27.50
2018-11-06T13:50:28.438Z,29.53
2018-11-06T13:52:58.051Z,28.83
2018-11-06T13:55:26.657Z,31.20
2018-11-06T13:57:55.256Z,32.87
2018-11-06T14:00:24.194Z,35.03
2018-11-06T14:02:52.796Z,33.97
2018-11-06T14:05:21.368Z,32.30
2018-11-06T14:07:50.362Z,33.77
2018-11-06T14:10:18.903Z,28.67
2018-11-06T14:12:47.573Z,32.03
2018-11-06T14:15:16.143Z,31.83
2018-11-06T14:17:44.702Z,32.50
2018-11-06T14:20:14.561Z,33.03
2018-11-06T14:22:43.482Z,31.00
2018-11-06T14:25:12.056Z,29.57
2018-11-06T14:27:40.770Z,30.80
2018-11-06T14:30:12.221Z,26.47
2018-11-06T14:32:40.774Z,25.80
2018-11-06T14:35:11.998Z,25.53
2018-11-06T14:37:41.514Z,23.67
2018-11-06T14:40:11.597Z,24.53
2018-11-06T14:42:40.948Z,26.00
2018-11-06T14:45:11.368Z,25.37
2018-11-06T14:47:40.784Z,24.87
2018-11-06T14:50:10.841Z,25.07
2018-11-06T14:52:40.271Z,23.83
2018-11-06T14:55:11.145Z,22.83
2018-11-06T14:57:40.963Z,23.53
2018-11-06T15:00:14.695Z,24.50
2018-11-06T15:02:45.564Z,21.87
2018-11-06T15:05:15.415Z,22.23
2018-11-06T15:07:45.628Z,22.13
2018-11-06T15:10:15.172Z,20.37
2018-11-06T15:12:45.244Z,21.20
2018-11-06T15:15:16.191Z,20.33
2018-11-06T15:17:46.514Z,21.13
2018-11-06T15:20:17.252Z,19.50
2018-11-06T15:22:46.839Z,20.87
2018-11-06T15:25:17.495Z,21.53
2018-11-06T15:27:47.024Z,20.40
2018-11-06T15:30:16.795Z,20.93
2018-11-06T15:32:45.399Z,22.00
2018-11-06T15:35:16.666Z,22.40
2018-11-06T15:37:45.233Z,20.93
2018-11-06T15:40:16.543Z,22.43
2018-11-06T15:42:45.325Z,23.10
2018-11-06T15:45:16.088Z,21.77
2018-11-06T15:47:45.474Z,20.40
2018-11-06T15:50:15.326Z,19.63
2018-11-06T15:52:44.928Z,21.07
2018-11-06T15:55:13.513Z,20.13
2018-11-06T15:57:42.163Z,20.73
2018-11-06T16:00:15.126Z,21.33
2018-11-06T16:02:44.191Z,22.37
2018-11-06T16:05:13.159Z,25.60
2018-11-06T16:07:41.778Z,26.87
2018-11-06T16:10:13.112Z,27.07
2018-11-06T16:12:42.236Z,24.53
2018-11-06T16:15:10.867Z,24.27
2018-11-06T16:17:39.635Z,25.43
2018-11-06T16:20:10.675Z,21.93
2018-11-06T16:22:39.559Z,22.57
2018-11-06T16:25:10.263Z,22.43
2018-11-06T16:27:39.495Z,23.10
2018-11-06T16:30:10.280Z,22.07
2018-11-06T16:32:39.069Z,21.77
2018-11-06T16:35:09.099Z,24.30
2018-11-06T16:37:37.969Z,23.03
2018-11-06T16:40:07.196Z,23.70
2018-11-06T16:42:36.019Z,24.57
2018-11-06T16:45:05.765Z,29.27
2018-11-06T16:47:34.467Z,25.17
2018-11-06T16:50:03.319Z,25.93
2018-11-06T16:52:31.843Z,38.33
2018-11-06T16:55:00.397Z,28.07
2018-11-06T16:57:28.965Z,34.17
2018-11-06T16:59:57.650Z,27.20
2018-11-06T17:02:26.104Z,27.33
2018-11-06T17:04:54.705Z,29.27
2018-11-06T17:07:23.353Z,33.17
2018-11-06T17:09:51.983Z,29.33
2018-11-06T17:12:20.739Z,27.47
2018-11-06T17:14:49.381Z,29.53
2018-11-06T17:17:18.114Z,28.30
2018-11-06T17:19:47.044Z,29.80
2018-11-06T17:22:15.627Z,30.40
2018-11-06T17:24:44.172Z,34.10
2018-11-06T17:27:12.740Z,28.63
2018-11-06T17:29:41.337Z,36.87
2018-11-06T17:32:09.896Z,34.27
2018-11-06T17:34:38.503Z,33.93
2018-11-06T17:37:07.141Z,28.30
2018-11-06T17:39:35.873Z,30.87
2018-11-06T17:42:04.466Z,32.90
2018-11-06T17:44:33.025Z,30.47
2018-11-06T17:47:02.290Z,28.33
2018-11-06T17:49:30.874Z,26.40
2018-11-06T17:51:59.901Z,27.83
2018-11-06T17:54:28.817Z,27.67
2018-11-06T17:56:57.364Z,27.27
2018-11-06T17:59:26.032Z,27.93
2018-11-06T18:01:54.603Z,28.17
2018-11-06T18:04:23.365Z,28.57
2018-11-06T18:06:51.839Z,29.43
2018-11-06T18:09:20.383Z,29.93
2018-11-06T18:11:49.029Z,25.23
2018-11-06T18:14:18.474Z,25.73
2018-11-06T18:16:47.097Z,23.83
2018-11-06T18:19:15.627Z,23.83
2018-11-06T18:21:44.271Z,23.70
2018-11-06T18:24:12.899Z,24.33
2018-11-06T18:26:41.617Z,27.83
2018-11-06T18:29:10.291Z,26.83
2018-11-06T18:31:39.027Z,24.17
2018-11-06T18:34:07.499Z,24.73
2018-11-06T18:36:36.060Z,24.37
2018-11-06T18:39:07.385Z,24.30
2018-11-06T18:41:36.390Z,29.67
2018-11-06T18:44:06.970Z,25.57
2018-11-06T18:46:35.782Z,23.57
2018-11-06T18:49:04.907Z,24.03
2018-11-06T18:51:33.597Z,25.13
2018-11-06T18:54:02.573Z,27.17
2018-11-06T18:56:31.134Z,24.17
2018-11-06T18:58:59.639Z,24.63
2018-11-06T19:01:28.209Z,28.93
2018-11-06T19:03:56.926Z,27.90
2018-11-06T19:06:25.751Z,26.77
2018-11-06T19:08:54.339Z,23.80
2018-11-06T19:11:22.919Z,26.63
2018-11-06T19:13:51.466Z,28.70
2018-11-06T19:16:20.056Z,33.13
2018-11-06T19:18:48.615Z,35.00
2018-11-06T19:21:17.174Z,33.13
2018-11-06T19:23:45.716Z,32.20
2018-11-06T19:26:14.300Z,30.50
2018-11-06T19:28:42.912Z,31.53
2018-11-06T19:31:11.540Z,35.50
2018-11-06T19:33:40.068Z,32.17
2018-11-06T19:36:08.668Z,35.57
2018-11-06T19:38:37.193Z,31.23
2018-11-06T19:41:06.263Z,32.87
2018-11-06T19:43:34.791Z,30.43
2018-11-06T19:46:03.687Z,35.83
2018-11-06T19:48:32.781Z,33.60
2018-11-06T19:51:01.356Z,35.17
2018-11-06T19:53:30.009Z,33.27
2018-11-06T19:55:58.567Z,33.50
2018-11-06T19:58:27.110Z,29.20
2018-11-06T20:00:55.819Z,27.70
2018-11-06T20:03:24.582Z,27.27
2018-11-06T20:05:53.261Z,28.07
2018-11-06T20:08:21.755Z,36.93
2018-11-06T20:10:50.403Z,47.93
2018-11-06T20:13:18.925Z,45.77
2018-11-06T20:15:47.606Z,48.50
2018-11-06T20:18:16.131Z,50.53
2018-11-06T20:20:44.789Z,80.60
2018-11-06T20:23:14.391Z,68.20
2018-11-06T20:25:42.980Z,69.63
2018-11-06T20:28:11.543Z,75.47
2018-11-06T20:30:40.864Z,64.80
2018-11-06T20:33:09.538Z,63.43
2018-11-06T20:35:38.411Z,64.67
2018-11-06T20:38:07.308Z,53.43
2018-11-06T20:40:36.097Z,51.57
2018-11-06T20:43:04.991Z,41.57
2018-11-06T20:45:34.161Z,40.67
2018-11-06T20:48:03.084Z,41.03
2018-11-06T20:50:31.646Z,42.40
2018-11-06T20:53:00.292Z,43.33
2018-11-06T20:55:29.080Z,43.73
2018-11-06T20:57:58.044Z,42.30
2018-11-06T21:00:30.257Z,40.60
2018-11-06T21:03:01.139Z,43.17
2018-11-06T21:05:29.703Z,42.43
2018-11-06T21:07:58.574Z,43.27
2018-11-06T21:10:29.173Z,42.50
2018-11-06T21:12:57.974Z,43.63
2018-11-06T21:15:26.550Z,44.17
2018-11-06T21:17:55.437Z,42.33
2018-11-06T21:20:24.016Z,43.17
2018-11-06T21:22:52.591Z,40.47
2018-11-06T21:25:21.419Z,39.53
2018-11-06T21:27:49.979Z,38.50
2018-11-06T21:30:20.037Z,38.70
2018-11-06T21:32:49.895Z,40.77
2018-11-06T21:35:18.648Z,39.10
2018-11-06T21:37:47.922Z,37.00
2018-11-06T21:40:17.747Z,33.17
2018-11-06T21:42:46.902Z,30.20
2018-11-06T21:45:16.133Z,28.43
2018-11-06T21:47:45.417Z,30.13
2018-11-06T21:50:14.802Z,31.60
2018-11-06T21:52:43.445Z,30.80
2018-11-06T21:55:13.397Z,31.20
2018-11-06T21:57:41.965Z,31.13
2018-11-06T22:00:14.066Z,31.93
2018-11-06T22:02:42.664Z,30.53
2018-11-06T22:05:12.496Z,30.47
2018-11-06T22:07:41.750Z,29.30
2018-11-06T22:10:12.890Z,30.07
2018-11-06T22:12:43.556Z,30.17
2018-11-06T22:15:13.324Z,30.00
2018-11-06T22:17:42.138Z,29.37
2018-11-06T22:20:12.940Z,28.87
2018-11-06T22:22:42.379Z,27.83
2018-11-06T22:25:10.928Z,29.23
2018-11-06T22:27:39.643Z,28.37
2018-11-06T22:30:11.339Z,28.63
2018-11-06T22:32:40.524Z,28.07
2018-11-06T22:35:10.432Z,28.90
2018-11-06T22:37:38.989Z,28.40
2018-11-06T22:40:08.243Z,30.00
2018-11-06T22:42:37.545Z,29.10
2018-11-06T22:45:07.939Z,29.47
2018-11-06T22:47:36.469Z,27.93
2018-11-06T22:50:06.087Z,28.87
2018-11-06T22:52:34.658Z,30.80
2018-11-06T22:55:03.277Z,31.03
2018-11-06T22:57:31.853Z,28.60
2018-11-06T23:00:00.407Z,27.83
2018-11-06T23:02:29.021Z,29.73
2018-11-06T23:04:57.723Z,31.10
2018-11-06T23:07:31.638Z,28.30
2018-11-06T23:10:00.252Z,29.80
2018-11-06T23:12:28.852Z,30.77
2018-11-06T23:14:57.434Z,28.70
2018-11-06T23:17:26.020Z,30.00
2018-11-06T23:19:54.602Z,28.20
2018-11-06T23:22:23.136Z,27.13
2018-11-06T23:24:51.771Z,31.00
2018-11-06T23:27:20.412Z,31.03
2018-11-06T23:29:49.013Z,30.47
2018-11-06T23:32:17.984Z,34.08
2018-11-06T23:34:46.568Z,38.40
2018-11-06T23:37:15.101Z,35.43
2018-11-06T23:39:43.668Z,34.07
2018-11-06T23:42:12.207Z,34.37
2018-11-06T23:44:41.105Z,34.90
2018-11-06T23:47:09.647Z,34.73
2018-11-06T23:49:38.269Z,32.67
2018-11-06T23:52:06.818Z,35.20
2018-11-06T23:54:35.477Z,33.33
2018-11-06T23:57:04.065Z,33.90
2018-11-06T23:59:32.678Z,35.47
